This is the latest recevied weather packets stored in our database for station/object KB7STN. If no packets are shown the sender has not sent any weather packets the latest 1 day(s).
| Time | Temp. | Humidity | Pressure | Rain* | Wind** | Luminosity | Snow |
|---|---|---|---|---|---|---|---|
| 1836274818 | 19.44° C | 38% | 1005.8 hPa | 0 mm | 0 m/s | - | - |
| 1836274518 | 19.44° C | 39% | 1005.8 hPa | 0 mm | 0 m/s | - | - |
| 1836274368 | 19.44° C | 42% | 1005.8 hPa | 0 mm | 0 m/s | - | - |
| 1836274218 | 19.44° C | 40% | 1005.7 hPa | 0 mm | 0 m/s | - | - |
| 1836273918 | 19.44° C | 38% | 1005.8 hPa | 0 mm | 0 m/s | - | - |
| 1778048536 | 10.56° C | 63% | 1003.7 hPa | 0 mm | 1.79 m/s, 273° | - | - |
| 1778048236 | 10.56° C | 62% | 1003.7 hPa | 0 mm | 1.34 m/s, 281° | - | - |
| 1778047936 | 10.56° C | 62% | 1003.7 hPa | 0 mm | 0.89 m/s, 289° | - | - |
| 1778047636 | 10.56° C | 62% | 1003.6 hPa | 0 mm | 0.45 m/s, 292° | - | - |
| 1778047336 | 10.56° C | 62% | 1003.6 hPa | 0 mm | 0 m/s | - | - |
| 1778047036 | 10.56° C | 62% | 1003.6 hPa | 0 mm | 0 m/s | - | - |
| 1778046736 | 10.56° C | 61% | 1003.7 hPa | 0 mm | 0 m/s | - | - |
| 1778046436 | 10.56° C | 61% | 1003.7 hPa | 0 mm | 0.45 m/s, 292° | - | - |
| 1778046136 | 10° C | 62% | 1003.7 hPa | 0 mm | 0.45 m/s, 292° | - | - |
| 1778045836 | 10° C | 63% | 1003.4 hPa | 0 mm | 0 m/s | - | - |
| 1778045536 | 10° C | 63% | 1003.2 hPa | 0 mm | 0 m/s | - | - |
| 1778045236 | 9.44° C | 63% | 1002.9 hPa | 0 mm | 0 m/s | - | - |
| 1778044936 | 9.44° C | 65% | 1003 hPa | 0 mm | 0 m/s | - | - |
| 1778044636 | 9.44° C | 65% | 1002.9 hPa | 0 mm | 0 m/s | - | - |
| 1778044336 | 9.44° C | 65% | 1002.9 hPa | 0 mm | 0 m/s | - | - |
| 1778044036 | 8.89° C | 65% | 1002.8 hPa | 0 mm | 0 m/s | - | - |
| 1778043736 | 8.89° C | 65% | 1002.6 hPa | 0 mm | 0 m/s | - | - |
| 1778043436 | 8.89° C | 66% | 1002.6 hPa | 0 mm | 0 m/s | - | - |
| 1778043136 | 8.89° C | 65% | 1002.6 hPa | 0 mm | 0 m/s | - | - |
| 1778042836 | 8.89° C | 66% | 1002.5 hPa | 0 mm | 0 m/s | - | - |
* Rain latest hour (hover to see other rain measurements)
** Current wind speed in m/s (hover to see current wind gust speed)